Time;durP1;ratioP1;P1;durP2;ratioP2;P2;SDS_P1;SDS_P2;PMS_P1;PMS_P2;Temp;Humidity;BMP_temperature;BMP_pressure;BME280_temperature;BME280_humidity;BME280_pressure;Samples;Min_cycle;Max_cycle;Signal;HPM_P1;HPM_P2
2023/02/15 00:02:06;;;;;;;26.17;17.20;;;5.30;99.90;;;;;;5113829;28;20234;-58
2023/02/15 00:04:50;;;;;;;27.70;17.07;;;5.30;99.90;;;;;;5113968;28;20759;-58
2023/02/15 00:07:20;;;;;;;28.53;17.90;;;5.50;99.90;;;;;;5118719;27;20243;-58
2023/02/15 00:09:48;;;;;;;30.80;19.67;;;5.50;99.90;;;;;;5117160;27;20579;-57
2023/02/15 00:12:17;;;;;;;26.67;17.73;;;5.60;99.90;;;;;;5114290;28;20236;-58
2023/02/15 00:14:45;;;;;;;29.37;17.83;;;5.50;99.90;;;;;;5119143;27;20232;-58
2023/02/15 00:17:13;;;;;;;33.33;19.57;;;5.60;99.90;;;;;;5114288;28;20222;-58
2023/02/15 00:19:41;;;;;;;28.13;19.47;;;5.70;99.90;;;;;;5114265;28;20230;-57
2023/02/15 00:22:10;;;;;;;30.20;19.07;;;5.60;99.90;;;;;;5121912;27;20232;-58
2023/02/15 00:24:39;;;;;;;35.17;22.40;;;5.70;99.90;;;;;;5134273;27;20504;-58
2023/02/15 00:27:08;;;;;;;26.90;18.23;;;5.20;99.90;;;;;;5122500;27;20573;-58
2023/02/15 00:29:36;;;;;;;28.40;17.23;;;5.20;99.90;;;;;;5113538;28;20221;-58
2023/02/15 00:32:05;;;;;;;27.53;17.87;;;5.10;99.90;;;;;;5113306;28;20237;-58
2023/02/15 00:34:34;;;;;;;27.13;17.33;;;5.20;99.90;;;;;;5095080;28;20470;-58
2023/02/15 00:37:02;;;;;;;29.83;18.03;;;5.30;99.90;;;;;;5095269;28;20498;-57
2023/02/15 00:39:30;;;;;;;31.33;20.60;;;5.20;99.90;;;;;;5128572;27;20726;-58
2023/02/15 00:42:00;;;;;;;34.97;21.70;;;5.10;99.90;;;;;;5134405;27;20311;-58
2023/02/15 00:44:28;;;;;;;33.77;21.10;;;4.80;99.90;;;;;;5103395;28;20483;-58
2023/02/15 00:46:57;;;;;;;31.27;20.50;;;4.60;99.90;;;;;;5113581;28;20311;-58
2023/02/15 00:49:25;;;;;;;33.60;21.10;;;4.50;99.90;;;;;;5113309;28;20447;-57
2023/02/15 00:51:54;;;;;;;37.37;22.70;;;4.40;99.90;;;;;;5094137;28;20892;-58
2023/02/15 00:54:22;;;;;;;37.23;22.83;;;4.40;99.90;;;;;;5113340;28;20459;-58
2023/02/15 00:56:50;;;;;;;36.60;22.43;;;4.40;99.90;;;;;;5100630;28;20505;-58
2023/02/15 00:59:20;;;;;;;39.13;22.83;;;4.50;99.90;;;;;;5094627;28;20455;-58
2023/02/15 01:01:51;;;;;;;40.97;23.30;;;4.40;99.90;;;;;;5094315;28;20824;-58
2023/02/15 01:04:20;;;;;;;41.17;24.13;;;4.40;99.90;;;;;;5095012;28;20547;-58
2023/02/15 01:06:48;;;;;;;39.17;23.17;;;4.40;99.90;;;;;;5094674;28;20471;-58
2023/02/15 01:09:16;;;;;;;37.47;23.40;;;4.40;99.90;;;;;;5126047;27;20302;-58
2023/02/15 01:11:44;;;;;;;41.10;23.80;;;4.40;99.90;;;;;;5133534;27;21041;-58
2023/02/15 01:14:13;;;;;;;33.83;22.47;;;4.40;99.90;;;;;;5124138;27;20485;-58
2023/02/15 01:16:43;;;;;;;38.07;23.13;;;4.40;99.90;;;;;;5094423;28;20463;-58
2023/02/15 01:19:11;;;;;;;30.43;19.87;;;4.30;99.90;;;;;;5113130;28;20455;-58
2023/02/15 01:21:40;;;;;;;39.73;23.07;;;4.40;99.90;;;;;;5094673;28;20532;-58
2023/02/15 01:24:13;;;;;;;38.97;22.43;;;4.40;99.90;;;;;;5113149;28;20880;-58
2023/02/15 01:26:41;;;;;;;36.97;23.37;;;4.40;99.90;;;;;;5118495;28;20460;-58
2023/02/15 01:29:09;;;;;;;32.20;21.57;;;4.30;99.90;;;;;;5106449;28;20486;-58
2023/02/15 01:31:38;;;;;;;35.87;20.90;;;4.30;99.90;;;;;;5112536;28;20513;-58
2023/02/15 01:34:08;;;;;;;31.77;20.63;;;4.30;99.90;;;;;;5112901;28;20951;-57
2023/02/15 01:36:39;;;;;;;28.47;20.03;;;4.20;99.90;;;;;;5094372;28;20497;-58
2023/02/15 01:39:10;;;;;;;28.83;19.50;;;4.20;99.90;;;;;;5124564;28;20463;-58
2023/02/15 01:41:38;;;;;;;32.77;19.53;;;4.20;99.90;;;;;;5133523;28;20603;-58
2023/02/15 01:44:36;;;;;;;26.50;16.97;;;4.10;99.90;;;;;;5124465;28;20966;-57
2023/02/15 01:47:04;;;;;;;25.33;17.03;;;4.20;99.90;;;;;;5093912;28;20842;-57
2023/02/15 01:49:34;;;;;;;27.03;20.17;;;4.20;99.90;;;;;;5094224;28;20491;-57
2023/02/15 01:52:02;;;;;;;29.20;20.00;;;4.10;99.90;;;;;;5112705;28;20458;-58
2023/02/15 01:54:33;;;;;;;25.53;18.80;;;4.10;99.90;;;;;;5112483;28;20475;-58
2023/02/15 01:57:04;;;;;;;22.10;17.60;;;4.10;99.90;;;;;;5118366;28;20459;-58
2023/02/15 01:59:34;;;;;;;23.23;17.43;;;4.10;99.90;;;;;;5094153;28;20496;-58
2023/02/15 02:02:05;;;;;;;24.27;17.63;;;4.00;99.90;;;;;;5112567;28;20539;-58
2023/02/15 02:04:40;;;;;;;22.30;17.40;;;4.00;99.90;;;;;;5116428;28;20469;-57
2023/02/15 02:07:10;;;;;;;20.50;16.27;;;4.00;99.90;;;;;;5128353;27;20463;-58
2023/02/15 02:09:38;;;;;;;19.60;14.93;;;3.90;99.90;;;;;;5132459;27;20517;-58
2023/02/15 02:12:08;;;;;;;22.37;16.73;;;4.10;99.90;;;;;;5118598;27;20468;-58
2023/02/15 02:14:36;;;;;;;22.70;16.63;;;4.10;99.90;;;;;;5123816;27;20825;-58
2023/02/15 02:17:12;;;;;;;22.53;17.27;;;4.40;99.90;;;;;;5116231;28;20969;-58
2023/02/15 02:20:20;;;;;;;25.13;17.63;;;4.20;99.90;;;;;;5116132;28;20568;-58
2023/02/15 02:23:27;;;;;;;23.63;18.30;;;4.10;99.90;;;;;;5113647;28;20527;-58
2023/02/15 02:26:31;;;;;;;20.70;15.50;;;4.00;99.90;;;;;;5124884;27;20472;-58
2023/02/15 02:29:38;;;;;;;24.67;18.80;;;4.10;99.90;;;;;;5115981;28;20846;-59
2023/02/15 02:32:32;;;;;;;24.50;18.07;;;3.90;99.90;;;;;;5092667;28;20478;-58
2023/02/15 02:35:09;;;;;;;27.53;17.63;;;3.80;99.90;;;;;;5116012;28;20803;-58
2023/02/15 02:37:49;;;;;;;23.00;17.47;;;3.90;99.90;;;;;;5127546;27;20454;-58
2023/02/15 02:40:23;;;;;;;23.73;15.83;;;3.80;99.90;;;;;;5095535;28;20478;-57
2023/02/15 02:43:00;;;;;;;21.87;16.83;;;3.70;99.90;;;;;;5095406;28;20557;-58
2023/02/15 02:45:33;;;;;;;23.43;16.83;;;3.80;99.90;;;;;;5108947;28;20454;-58
2023/02/15 02:48:06;;;;;;;21.03;16.57;;;3.70;99.90;;;;;;5114604;28;20462;-58
2023/02/15 02:50:35;;;;;;;21.03;16.13;;;3.70;99.90;;;;;;5115556;28;20448;-58
2023/02/15 02:53:04;;;;;;;23.90;17.33;;;3.70;99.90;;;;;;5115914;27;20950;-57
2023/02/15 02:55:36;;;;;;;21.07;16.43;;;3.70;99.90;;;;;;5115652;28;20816;-58
2023/02/15 02:58:09;;;;;;;18.27;13.53;;;3.60;99.90;;;;;;5094747;28;20465;-58
2023/02/15 03:00:41;;;;;;;19.60;16.33;;;3.60;99.90;;;;;;5093221;28;20499;-58
2023/02/15 03:03:14;;;;;;;22.27;16.10;;;3.60;99.90;;;;;;5111763;28;20823;-58
2023/02/15 03:05:48;;;;;;;22.00;15.73;;;3.60;99.90;;;;;;5096815;28;20657;-58
2023/02/15 03:08:21;;;;;;;17.90;13.23;;;3.50;99.90;;;;;;5107806;28;20228;-57
2023/02/15 03:10:52;;;;;;;21.90;16.17;;;3.60;99.90;;;;;;5097121;28;20463;-58
2023/02/15 03:13:21;;;;;;;22.07;17.10;;;3.70;99.90;;;;;;5097808;28;20472;-57
2023/02/15 03:18:42;;;;;;;18.50;14.23;;;3.60;99.90;;;;;;5096752;28;20554;-58
2023/02/15 03:21:21;;;;;;;22.50;17.60;;;3.70;99.90;;;;;;5115390;28;20471;-58
2023/02/15 03:23:55;;;;;;;29.93;17.43;;;3.60;99.90;;;;;;5115031;28;20500;-58
2023/02/15 03:26:25;;;;;;;25.93;16.00;;;3.70;99.90;;;;;;5102294;28;20478;-58
2023/02/15 03:28:57;;;;;;;23.20;16.30;;;3.60;99.90;;;;;;5096523;28;20858;-58
2023/02/15 03:31:31;;;;;;;21.70;15.73;;;3.50;99.90;;;;;;5096191;28;20491;-57
2023/02/15 03:34:03;;;;;;;19.70;15.97;;;3.40;99.90;;;;;;5114857;28;20466;-57
2023/02/15 03:36:42;;;;;;;21.27;16.03;;;3.40;99.90;;;;;;5114581;28;20452;-58
2023/02/15 03:39:18;;;;;;;21.60;15.57;;;3.40;99.90;;;;;;5112552;28;20482;-58
2023/02/15 03:41:53;;;;;;;24.60;16.17;;;3.30;99.90;;;;;;5114510;28;20466;-58
2023/02/15 03:44:27;;;;;;;18.87;13.83;;;3.30;99.90;;;;;;5114460;28;20480;-58
2023/02/15 03:47:03;;;;;;;21.03;14.43;;;3.30;99.90;;;;;;5106315;28;20467;-58
2023/02/15 03:49:40;;;;;;;22.37;14.77;;;3.20;99.90;;;;;;5114557;28;20494;-58
2023/02/15 03:52:11;;;;;;;18.33;13.57;;;3.10;99.90;;;;;;5114712;28;20477;-58
2023/02/15 03:54:45;;;;;;;21.03;14.90;;;3.10;99.90;;;;;;5114310;28;20946;-57
2023/02/15 04:03:10;;;;;;;16.17;12.17;;;3.30;99.90;;;;;;5114432;28;20463;-57
2023/02/15 04:05:39;;;;;;;20.00;14.63;;;3.40;99.90;;;;;;5114038;28;20509;-58
2023/02/15 04:08:09;;;;;;;21.67;17.50;;;3.60;99.90;;;;;;5105839;28;20973;-58
2023/02/15 04:10:55;;;;;;;24.03;16.40;;;3.40;99.90;;;;;;5114179;28;20840;-58
2023/02/15 04:13:31;;;;;;;18.53;15.30;;;3.30;99.90;;;;;;5095677;28;20478;-57
2023/02/15 04:16:04;;;;;;;20.60;15.77;;;3.20;99.90;;;;;;5105767;28;20944;-57
2023/02/15 04:26:58;;;;;;;18.00;14.43;;;3.40;99.90;;;;;;5113751;28;20947;-58
2023/02/15 04:29:27;;;;;;;18.60;14.20;;;3.70;99.90;;;;;;5107223;27;20511;-56
2023/02/15 04:31:58;;;;;;;23.53;17.37;;;3.80;99.90;;;;;;5113393;27;20553;-58
2023/02/15 04:34:26;;;;;;;22.47;17.47;;;3.50;99.90;;;;;;5128562;27;20532;-56
2023/02/15 04:36:54;;;;;;;20.17;16.33;;;3.30;99.90;;;;;;5119000;27;20463;-57
2023/02/15 04:39:24;;;;;;;22.00;16.33;;;3.20;99.90;;;;;;5106990;28;20462;-58
2023/02/15 04:41:52;;;;;;;18.13;14.63;;;3.30;99.90;;;;;;5113859;28;20832;-58
2023/02/15 04:44:20;;;;;;;20.00;15.37;;;3.20;99.90;;;;;;5113399;28;20498;-58
2023/02/15 04:46:48;;;;;;;19.83;15.37;;;3.10;99.90;;;;;;5104528;28;20461;-58
2023/02/15 04:49:16;;;;;;;23.57;14.70;;;3.10;99.90;;;;;;5107185;28;20484;-57
2023/02/15 04:51:44;;;;;;;19.57;14.70;;;3.00;99.90;;;;;;5113288;28;20448;-58
2023/02/15 04:54:12;;;;;;;18.70;14.87;;;3.00;99.90;;;;;;5113686;28;20473;-58
2023/02/15 04:56:42;;;;;;;18.00;14.60;;;2.90;99.90;;;;;;5113149;28;20462;-58
2023/02/15 04:59:11;;;;;;;16.07;12.47;;;2.90;99.90;;;;;;5113571;28;20465;-58
2023/02/15 05:01:39;;;;;;;18.13;14.27;;;3.00;99.90;;;;;;5112798;28;21109;-58
2023/02/15 05:04:07;;;;;;;18.13;14.43;;;3.00;99.90;;;;;;5113561;28;20469;-56
2023/02/15 05:06:35;;;;;;;18.47;14.97;;;3.00;99.90;;;;;;5113275;28;20496;-58
2023/02/15 05:09:03;;;;;;;26.80;13.67;;;2.90;99.90;;;;;;5104558;28;20477;-58
2023/02/15 05:11:31;;;;;;;16.77;12.80;;;2.80;99.90;;;;;;5113302;28;20473;-57
2023/02/15 05:14:01;;;;;;;15.63;13.30;;;2.90;99.90;;;;;;5113090;28;20472;-58
2023/02/15 05:16:29;;;;;;;21.03;12.97;;;2.80;99.90;;;;;;5104545;28;20527;-57
2023/02/15 05:18:57;;;;;;;20.13;13.47;;;2.70;99.90;;;;;;5125440;28;20463;-57
2023/02/15 05:21:25;;;;;;;17.00;13.10;;;2.80;99.90;;;;;;5105329;28;20467;-58
2023/02/15 05:23:53;;;;;;;16.43;12.97;;;2.80;99.90;;;;;;5099290;28;20463;-56
2023/02/15 05:29:12;;;;;;;20.10;15.57;;;3.10;99.90;;;;;;5106027;28;21004;-57
2023/02/15 05:31:40;;;;;;;19.27;12.23;;;3.00;99.90;;;;;;5109957;28;20467;-58
2023/02/15 05:34:08;;;;;;;17.43;13.53;;;3.10;99.90;;;;;;5112540;28;20458;-58
2023/02/15 05:36:36;;;;;;;22.23;16.97;;;3.20;99.90;;;;;;5112925;27;20450;-58
2023/02/15 05:39:05;;;;;;;21.93;16.10;;;3.40;99.90;;;;;;5116964;28;20474;-58
2023/02/15 05:41:33;;;;;;;19.80;16.13;;;3.10;99.90;;;;;;5116902;28;20518;-58
2023/02/15 05:44:01;;;;;;;21.93;14.77;;;2.90;99.90;;;;;;5114410;28;20524;-57
2023/02/15 05:46:31;;;;;;;20.33;15.87;;;2.90;99.90;;;;;;5110219;28;20961;-57
2023/02/15 05:48:59;;;;;;;21.00;16.73;;;2.80;99.90;;;;;;5096817;28;20467;-58
2023/02/15 05:51:27;;;;;;;19.47;14.87;;;2.70;99.90;;;;;;5114665;28;20986;-57
2023/02/15 05:53:55;;;;;;;18.80;12.87;;;2.70;99.90;;;;;;5098592;28;20545;-57
2023/02/15 05:56:23;;;;;;;21.07;16.80;;;3.10;99.90;;;;;;5096645;28;20973;-57
2023/02/15 05:58:54;;;;;;;18.83;14.23;;;3.40;99.90;;;;;;5096614;28;20464;-58
2023/02/15 06:01:22;;;;;;;21.73;16.07;;;3.40;99.90;;;;;;5095984;28;20848;-58
2023/02/15 06:03:52;;;;;;;22.30;18.20;;;3.40;99.90;;;;;;5096244;28;20448;-58
2023/02/15 06:06:21;;;;;;;21.17;16.47;;;3.20;99.90;;;;;;5105204;27;20528;-55
2023/02/15 06:08:49;;;;;;;20.50;15.00;;;2.90;99.90;;;;;;5116291;28;20465;-58
2023/02/15 06:11:17;;;;;;;19.30;16.07;;;2.90;99.90;;;;;;5116355;28;20984;-58
2023/02/15 06:13:45;;;;;;;17.77;13.10;;;2.70;99.90;;;;;;5113809;28;20462;-57
2023/02/15 06:16:15;;;;;;;21.00;16.30;;;3.00;99.90;;;;;;5115914;28;20474;-58
2023/02/15 06:18:44;;;;;;;19.73;15.07;;;2.80;99.90;;;;;;5115902;28;20493;-58
2023/02/15 06:21:13;;;;;;;17.17;12.87;;;2.70;99.90;;;;;;5115978;28;20985;-58
2023/02/15 06:23:41;;;;;;;23.23;16.83;;;3.20;99.90;;;;;;5115980;28;20469;-58
2023/02/15 06:26:09;;;;;;;23.20;16.80;;;3.10;99.90;;;;;;5115859;28;20470;-58
2023/02/15 06:28:38;;;;;;;18.67;15.43;;;2.80;99.90;;;;;;5115613;28;20461;-58
2023/02/15 06:31:06;;;;;;;19.37;16.13;;;2.80;99.90;;;;;;5115475;28;20876;-57
2023/02/15 06:33:34;;;;;;;19.07;14.67;;;2.70;99.90;;;;;;5112665;28;20450;-58
2023/02/15 06:36:03;;;;;;;17.83;14.30;;;2.60;99.90;;;;;;5099216;28;20469;-57
2023/02/15 06:38:33;;;;;;;17.40;14.57;;;2.70;99.90;;;;;;5116413;27;20466;-59
2023/02/15 06:41:01;;;;;;;20.40;14.30;;;2.60;99.90;;;;;;5120705;27;20455;-58
2023/02/15 06:43:29;;;;;;;21.83;14.03;;;2.60;99.90;;;;;;5114698;27;20524;-57
2023/02/15 06:45:57;;;;;;;17.53;14.13;;;2.60;99.90;;;;;;5115502;27;20526;-56
2023/02/15 06:48:25;;;;;;;22.47;14.27;;;2.60;99.90;;;;;;5112845;27;20825;-54
2023/02/15 06:50:53;;;;;;;22.77;14.50;;;2.50;99.90;;;;;;5110905;27;20874;-57
2023/02/15 06:53:21;;;;;;;18.10;13.33;;;2.50;99.90;;;;;;5114310;28;20457;-57
2023/02/15 06:55:52;;;;;;;19.30;13.30;;;2.50;99.90;;;;;;5112165;27;20448;-56
2023/02/15 06:58:21;;;;;;;28.97;13.50;;;2.50;99.90;;;;;;5114430;27;20465;-58
2023/02/15 07:00:49;;;;;;;15.23;12.50;;;2.60;99.90;;;;;;5114824;27;20488;-58
2023/02/15 07:03:18;;;;;;;15.90;12.87;;;2.60;99.90;;;;;;5108146;28;20970;-58
2023/02/15 07:05:48;;;;;;;16.70;13.77;;;2.50;99.90;;;;;;5120049;27;20887;-57
2023/02/15 07:08:16;;;;;;;18.33;14.03;;;2.50;99.90;;;;;;5115199;28;20955;-58
2023/02/15 07:10:44;;;;;;;17.17;14.10;;;2.50;99.90;;;;;;5113498;28;20483;-57
2023/02/15 07:13:13;;;;;;;15.07;12.40;;;2.50;99.90;;;;;;5112182;28;20471;-58
2023/02/15 07:15:41;;;;;;;14.20;12.13;;;2.40;99.90;;;;;;5112422;27;20804;-58
2023/02/15 07:18:10;;;;;;;16.70;13.03;;;2.50;99.90;;;;;;5110163;28;20559;-58
2023/02/15 07:20:41;;;;;;;17.60;12.63;;;2.40;99.90;;;;;;5114684;28;20470;-56
2023/02/15 07:23:09;;;;;;;16.73;12.83;;;2.50;99.90;;;;;;5106234;28;20959;-58
2023/02/15 07:25:37;;;;;;;15.37;13.00;;;2.50;99.90;;;;;;5119948;27;20840;-57
2023/02/15 07:28:05;;;;;;;15.63;13.07;;;2.50;99.90;;;;;;5108294;27;20472;-57
2023/02/15 07:30:35;;;;;;;14.97;12.60;;;2.50;99.90;;;;;;5111583;27;20481;-58
2023/02/15 07:35:50;;;;;;;15.00;12.60;;;2.30;99.90;;;;;;5115861;27;20457;-56
2023/02/15 07:38:19;;;;;;;14.80;12.77;;;2.40;99.90;;;;;;5113587;27;20475;-58
2023/02/15 07:40:47;;;;;;;19.30;12.90;;;2.30;99.90;;;;;;5114104;28;20460;-57
2023/02/15 07:43:15;;;;;;;15.47;13.27;;;2.30;99.90;;;;;;5113680;27;20532;-58
2023/02/15 07:45:44;;;;;;;16.00;13.50;;;2.40;99.90;;;;;;5121094;27;20479;-58
2023/02/15 07:48:12;;;;;;;17.80;13.33;;;2.40;99.90;;;;;;5114420;27;20536;-58
2023/02/15 07:50:41;;;;;;;24.67;13.23;;;2.40;99.90;;;;;;5119517;27;20991;-58
2023/02/15 07:53:09;;;;;;;16.30;12.20;;;2.30;99.90;;;;;;5113320;27;20469;-57
2023/02/15 07:55:37;;;;;;;15.23;12.93;;;2.30;99.90;;;;;;5113117;28;20883;-57
2023/02/15 07:58:05;;;;;;;15.87;13.37;;;2.30;99.90;;;;;;5122462;27;20458;-56
2023/02/15 08:00:56;;;;;;;16.77;13.00;;;2.30;99.90;;;;;;5118840;27;20465;-58
2023/02/15 08:03:26;;;;;;;19.63;14.33;;;2.30;99.90;;;;;;5111244;27;20514;-56
2023/02/15 08:05:58;;;;;;;17.73;13.97;;;2.40;99.90;;;;;;5113231;28;20541;-58
2023/02/15 08:08:33;;;;;;;16.47;13.43;;;2.50;99.90;;;;;;5113091;27;20468;-58
2023/02/15 08:13:59;;;;;;;18.57;14.33;;;2.40;99.90;;;;;;5115950;27;21054;-58
2023/02/15 08:16:30;;;;;;;19.80;13.70;;;2.30;99.90;;;;;;5129907;27;20872;-58
2023/02/15 08:19:02;;;;;;;21.37;14.83;;;2.40;99.90;;;;;;5123938;27;20863;-58
2023/02/15 08:21:31;;;;;;;22.20;14.93;;;2.40;99.90;;;;;;5120493;27;20457;-58
2023/02/15 08:24:00;;;;;;;19.93;15.17;;;2.40;99.90;;;;;;5124170;27;20475;-57
2023/02/15 08:26:29;;;;;;;17.33;12.50;;;2.60;99.90;;;;;;5113498;27;20474;-57
2023/02/15 08:28:58;;;;;;;18.60;14.37;;;2.60;99.90;;;;;;5117139;27;20469;-58
2023/02/15 08:31:27;;;;;;;20.97;16.00;;;2.70;99.90;;;;;;5126871;27;20476;-57
2023/02/15 08:33:57;;;;;;;19.63;14.97;;;2.70;99.90;;;;;;5122277;27;20468;-58
2023/02/15 08:36:28;;;;;;;21.40;15.67;;;2.80;99.90;;;;;;5121121;27;20505;-57
2023/02/15 08:38:59;;;;;;;25.03;16.63;;;2.80;99.90;;;;;;5132416;27;20500;-57
2023/02/15 08:41:30;;;;;;;21.67;16.63;;;2.80;99.90;;;;;;5122738;27;20483;-57
2023/02/15 08:44:00;;;;;;;23.13;16.90;;;2.70;99.90;;;;;;5119996;27;21104;-58
2023/02/15 08:46:29;;;;;;;21.40;14.80;;;2.70;99.90;;;;;;5125874;27;20804;-58
2023/02/15 08:48:58;;;;;;;20.70;15.73;;;2.90;99.90;;;;;;5118109;27;20989;-58
2023/02/15 08:51:29;;;;;;;23.30;16.30;;;3.00;99.90;;;;;;5117083;27;21095;-55
2023/02/15 08:54:00;;;;;;;23.70;17.00;;;3.00;99.90;;;;;;5114801;28;20465;-58
2023/02/15 08:56:31;;;;;;;22.33;16.40;;;3.10;99.90;;;;;;5120384;27;20478;-57
2023/02/15 08:59:00;;;;;;;25.73;20.03;;;3.10;99.90;;;;;;5114571;28;20972;-58
2023/02/15 09:01:30;;;;;;;24.40;17.03;;;3.10;99.90;;;;;;5117439;27;20463;-57
2023/02/15 09:03:59;;;;;;;26.10;19.30;;;3.10;99.90;;;;;;5117466;27;20981;-58
2023/02/15 09:06:29;;;;;;;23.03;17.53;;;3.20;99.90;;;;;;5116612;28;20803;-58
2023/02/15 09:08:57;;;;;;;25.67;19.43;;;3.30;99.90;;;;;;5114193;27;20560;-58
2023/02/15 09:11:28;;;;;;;26.90;18.30;;;3.20;99.90;;;;;;5112059;28;20471;-57
2023/02/15 09:13:57;;;;;;;24.37;18.10;;;3.30;99.90;;;;;;5115385;27;20824;-58
2023/02/15 09:16:27;;;;;;;22.07;17.13;;;3.40;99.90;;;;;;5116478;28;20467;-58
2023/02/15 09:18:57;;;;;;;21.60;17.27;;;3.40;99.90;;;;;;5121829;28;20469;-58
2023/02/15 09:21:26;;;;;;;22.37;17.03;;;3.40;99.90;;;;;;5114193;28;21001;-56
2023/02/15 09:23:59;;;;;;;22.60;16.47;;;3.40;99.90;;;;;;5122376;28;20479;-58
2023/02/15 09:26:30;;;;;;;22.17;17.30;;;3.50;99.90;;;;;;5120614;28;20464;-57
2023/02/15 09:29:00;;;;;;;27.30;18.40;;;3.50;99.90;;;;;;5118640;28;20471;-58
2023/02/15 09:31:31;;;;;;;22.90;17.33;;;3.40;99.90;;;;;;5114886;28;20486;-58
2023/02/15 09:34:01;;;;;;;23.77;18.20;;;3.40;99.90;;;;;;5126950;28;20527;-58
2023/02/15 09:36:32;;;;;;;24.00;18.93;;;3.40;99.90;;;;;;5118854;28;20508;-58
2023/02/15 09:39:08;;;;;;;23.30;18.67;;;3.50;99.90;;;;;;5115173;28;20467;-58
2023/02/15 09:42:11;;;;;;;23.07;17.00;;;3.60;99.90;;;;;;5116802;28;20859;-58
2023/02/15 09:45:17;;;;;;;25.77;19.23;;;3.80;99.90;;;;;;5122866;28;20478;-58
2023/02/15 09:48:14;;;;;;;24.17;18.40;;;3.80;99.90;;;;;;5068791;28;20906;-57
2023/02/15 09:50:56;;;;;;;26.33;20.17;;;3.90;99.90;;;;;;5111676;28;20485;-58
2023/02/15 09:53:45;;;;;;;26.43;18.83;;;3.70;99.90;;;;;;5098267;28;20487;-58
2023/02/15 09:56:29;;;;;;;28.57;20.00;;;4.00;99.90;;;;;;5105757;28;20469;-57
2023/02/15 09:59:06;;;;;;;28.17;21.47;;;4.00;99.90;;;;;;5108120;28;20561;-57
2023/02/15 10:01:45;;;;;;;29.17;21.97;;;3.90;99.90;;;;;;5072730;28;20474;-57
2023/02/15 10:04:32;;;;;;;28.17;20.90;;;3.90;99.90;;;;;;5107150;28;20994;-57
2023/02/15 10:07:14;;;;;;;29.77;21.20;;;3.90;99.90;;;;;;5107831;28;20463;-58
2023/02/15 10:09:55;;;;;;;31.93;21.47;;;4.10;99.90;;;;;;5117710;28;20998;-58
2023/02/15 10:12:52;;;;;;;28.77;21.00;;;4.10;99.90;;;;;;5116137;28;20486;-58
2023/02/15 10:15:31;;;;;;;34.70;24.43;;;4.20;99.90;;;;;;5108002;28;20978;-58
2023/02/15 10:18:17;;;;;;;37.40;24.43;;;4.20;99.90;;;;;;5120473;27;20469;-58
2023/02/15 10:20:55;;;;;;;33.53;24.17;;;4.20;99.90;;;;;;5120459;28;20480;-57
2023/02/15 10:23:37;;;;;;;31.43;23.00;;;4.20;99.90;;;;;;5113866;28;20455;-58
2023/02/15 10:26:13;;;;;;;33.80;24.30;;;4.20;99.90;;;;;;5121096;27;20467;-58
2023/02/15 10:28:48;;;;;;;32.87;24.73;;;4.40;99.90;;;;;;5117338;27;20473;-58
2023/02/15 10:31:24;;;;;;;36.80;25.20;;;4.40;99.90;;;;;;5111540;27;20481;-59
2023/02/15 10:34:10;;;;;;;30.63;23.83;;;4.50;99.90;;;;;;5124073;27;20478;-58
2023/02/15 10:36:52;;;;;;;30.60;23.07;;;4.50;99.90;;;;;;5120000;27;20987;-58
2023/02/15 10:39:26;;;;;;;36.63;25.63;;;4.60;99.90;;;;;;5117447;27;20228;-58
2023/02/15 10:42:01;;;;;;;31.80;23.73;;;4.60;99.90;;;;;;5123705;27;20583;-57
2023/02/15 10:44:46;;;;;;;33.43;26.10;;;4.80;99.90;;;;;;5124734;27;20490;-58
2023/02/15 10:47:36;;;;;;;35.67;26.40;;;4.70;99.90;;;;;;5122790;27;20982;-58
2023/02/15 10:50:35;;;;;;;35.43;26.13;;;4.80;99.90;;;;;;5126812;27;20666;-58
2023/02/15 10:53:16;;;;;;;41.17;26.33;;;4.80;99.90;;;;;;5127329;27;20235;-58
2023/02/15 10:55:54;;;;;;;40.00;27.37;;;4.80;99.90;;;;;;5119274;27;20466;-57
2023/02/15 10:58:33;;;;;;;32.60;24.17;;;4.80;99.90;;;;;;5116706;27;20471;-57
2023/02/15 11:01:12;;;;;;;36.57;26.53;;;5.10;99.90;;;;;;5124447;27;20569;-58
2023/02/15 11:03:52;;;;;;;35.03;25.97;;;5.10;99.90;;;;;;5104957;27;20464;-58
2023/02/15 11:06:22;;;;;;;37.77;27.17;;;5.20;99.90;;;;;;5120771;27;20550;-58
2023/02/15 11:08:54;;;;;;;36.17;26.70;;;5.10;99.90;;;;;;5117710;27;20233;-58
2023/02/15 11:11:28;;;;;;;34.17;25.00;;;5.10;99.90;;;;;;5122117;27;20470;-58
2023/02/15 11:14:01;;;;;;;35.53;27.33;;;5.10;99.90;;;;;;5118459;27;20228;-57
2023/02/15 11:16:34;;;;;;;39.47;29.47;;;5.10;99.90;;;;;;5119196;27;20324;-58
2023/02/15 11:19:09;;;;;;;39.20;28.93;;;5.10;99.90;;;;;;5119915;27;20473;-59
2023/02/15 11:21:41;;;;;;;37.73;29.30;;;5.20;99.90;;;;;;5128759;27;20290;-59
2023/02/15 11:24:12;;;;;;;37.10;28.17;;;5.30;99.90;;;;;;5123003;27;20455;-58
2023/02/15 11:26:43;;;;;;;37.00;28.33;;;5.40;99.90;;;;;;5121015;27;20463;-58
2023/02/15 11:29:16;;;;;;;38.33;28.80;;;5.30;99.90;;;;;;5117719;27;20483;-58
2023/02/15 11:31:48;;;;;;;36.43;28.23;;;5.40;99.90;;;;;;5126010;27;20481;-55
2023/02/15 11:34:23;;;;;;;38.27;29.43;;;5.50;99.90;;;;;;5125283;27;20982;-58
2023/02/15 11:36:53;;;;;;;38.03;28.67;;;5.70;99.90;;;;;;5116986;27;20227;-56
2023/02/15 11:39:22;;;;;;;39.87;29.17;;;5.70;99.90;;;;;;5116000;27;20827;-58
2023/02/15 11:41:56;;;;;;;41.10;30.13;;;5.70;99.90;;;;;;5115352;27;20257;-58
2023/02/15 11:44:28;;;;;;;39.93;30.20;;;5.80;99.90;;;;;;5116861;27;20834;-58
2023/02/15 11:46:58;;;;;;;38.83;30.33;;;5.90;99.90;;;;;;5125268;27;20224;-58
2023/02/15 11:49:31;;;;;;;39.90;30.17;;;6.00;99.90;;;;;;5114078;28;20226;-57
2023/02/15 11:52:03;;;;;;;41.30;31.87;;;6.10;99.90;;;;;;5119243;27;20232;-58
2023/02/15 11:54:35;;;;;;;41.50;31.57;;;6.10;99.90;;;;;;5117121;27;20229;-58
2023/02/15 11:57:12;;;;;;;40.47;31.83;;;6.10;99.90;;;;;;5122732;27;20221;-58
2023/02/15 11:59:44;;;;;;;41.43;31.77;;;6.20;99.90;;;;;;5122072;27;20234;-57
2023/02/15 12:02:18;;;;;;;41.30;30.87;;;6.40;99.90;;;;;;5118186;27;20717;-58
2023/02/15 12:04:53;;;;;;;41.97;31.97;;;6.50;99.90;;;;;;5126905;27;20261;-58
2023/02/15 12:07:25;;;;;;;42.30;32.53;;;6.70;99.90;;;;;;5118792;27;20814;-57
2023/02/15 12:10:00;;;;;;;42.33;32.10;;;6.80;99.90;;;;;;5120992;27;20345;-58
2023/02/15 12:12:30;;;;;;;41.47;32.53;;;6.80;99.90;;;;;;5113801;28;20313;-58
2023/02/15 12:14:59;;;;;;;43.37;34.23;;;6.80;99.90;;;;;;5122114;27;20321;-58
2023/02/15 12:17:32;;;;;;;44.17;34.93;;;6.70;99.90;;;;;;5120557;27;20228;-57
2023/02/15 12:20:03;;;;;;;45.17;34.57;;;6.70;99.90;;;;;;5119641;27;20226;-58
2023/02/15 12:22:33;;;;;;;45.10;35.27;;;6.80;99.90;;;;;;5114039;28;20734;-58
2023/02/15 12:25:05;;;;;;;46.60;35.80;;;6.90;99.90;;;;;;5117555;27;20221;-58
2023/02/15 12:27:36;;;;;;;42.70;35.37;;;7.00;99.90;;;;;;5121767;27;20237;-58
2023/02/15 12:30:08;;;;;;;43.70;35.53;;;7.10;99.90;;;;;;5129620;27;20224;-59
2023/02/15 12:32:49;;;;;;;43.47;33.33;;;7.20;99.90;;;;;;5129874;27;20229;-58
2023/02/15 12:35:27;;;;;;;45.33;35.47;;;7.30;99.90;;;;;;5119274;27;20262;-58
2023/02/15 12:37:57;;;;;;;44.23;35.90;;;7.40;99.90;;;;;;5113697;28;20226;-59
2023/02/15 12:40:27;;;;;;;43.63;36.17;;;7.70;99.90;;;;;;5113866;28;20241;-58
2023/02/15 12:42:58;;;;;;;42.47;34.13;;;7.80;99.90;;;;;;5113681;28;20576;-59
2023/02/15 12:45:28;;;;;;;42.97;35.00;;;8.00;99.90;;;;;;5116162;27;20225;-58
2023/02/15 12:48:16;;;;;;;41.70;34.63;;;8.10;99.90;;;;;;5113190;28;20221;-58
2023/02/15 12:50:46;;;;;;;41.93;33.67;;;8.00;99.90;;;;;;5113567;28;20696;-58
2023/02/15 12:53:18;;;;;;;37.93;30.27;;;8.10;99.90;;;;;;5113565;28;20229;-59
2023/02/15 12:55:52;;;;;;;37.63;32.03;;;8.20;99.90;;;;;;5113504;28;20234;-58
2023/02/15 12:58:24;;;;;;;40.03;32.40;;;8.10;99.90;;;;;;5113412;28;20228;-58
2023/02/15 13:01:21;;;;;;;43.47;34.70;;;8.30;99.90;;;;;;5115458;27;20222;-59
2023/02/15 13:03:58;;;;;;;42.80;34.30;;;8.40;99.90;;;;;;5066622;28;20685;-58
2023/02/15 13:06:28;;;;;;;42.53;33.40;;;8.50;99.90;;;;;;5093899;28;20229;-57
2023/02/15 13:08:59;;;;;;;40.10;33.53;;;8.60;99.90;;;;;;5118221;27;20222;-58
2023/02/15 13:11:33;;;;;;;39.10;32.47;;;8.70;99.90;;;;;;5098433;27;20238;-58
2023/02/15 13:14:04;;;;;;;40.60;33.00;;;8.80;99.90;;;;;;5100612;28;20228;-58
2023/02/15 13:16:35;;;;;;;43.37;33.90;;;8.90;99.90;;;;;;5121186;27;20226;-58
2023/02/15 13:19:11;;;;;;;40.27;33.07;;;8.90;99.90;;;;;;5116139;27;20257;-58
2023/02/15 13:21:43;;;;;;;33.80;29.20;;;8.90;99.90;;;;;;5112574;28;20300;-58
2023/02/15 13:24:19;;;;;;;40.97;33.57;;;8.90;99.90;;;;;;5092645;28;20618;-58
2023/02/15 13:26:48;;;;;;;38.87;31.23;;;9.00;99.90;;;;;;5103295;28;20225;-58
2023/02/15 13:29:22;;;;;;;42.20;32.57;;;9.00;99.90;;;;;;5122257;28;20707;-59